Time;durP1;ratioP1;P1;durP2;ratioP2;P2;SDS_P1;SDS_P2;PMS_P1;PMS_P2;Temp;Humidity;BMP_temperature;BMP_pressure;BME280_temperature;BME280_humidity;BME280_pressure;Samples;Min_cycle;Max_cycle;Signal;HPM_P1;HPM_P2
2023/05/26 00:00:51;;;;;;;13.15;5.68;;;12.40;99.90;;;11.39;100.00;98476.69;4986108;28;20514;-70
2023/05/26 00:03:18;;;;;;;13.18;5.95;;;12.40;99.90;;;11.45;100.00;98474.75;5004197;28;20054;-70
2023/05/26 00:05:49;;;;;;;13.88;5.80;;;12.40;99.90;;;11.39;100.00;98476.69;5009692;28;20057;-70
2023/05/26 00:08:16;;;;;;;13.52;5.93;;;12.40;99.90;;;11.40;100.00;98478.38;5007125;28;20046;-70
2023/05/26 00:10:43;;;;;;;12.70;6.65;;;12.40;99.90;;;11.43;100.00;98473.94;5002047;28;20479;-70
2023/05/26 00:13:10;;;;;;;10.15;5.45;;;12.40;99.90;;;11.38;100.00;98473.25;5005310;28;20536;-70
2023/05/26 00:15:37;;;;;;;10.57;6.03;;;12.40;99.90;;;11.27;100.00;98470.97;5008634;28;20132;-70
2023/05/26 00:18:05;;;;;;;11.07;6.38;;;12.30;99.90;;;11.27;100.00;98470.13;5007325;28;20060;-70
2023/05/26 00:20:33;;;;;;;13.23;5.97;;;12.30;99.90;;;11.24;100.00;98471.06;4995793;28;20486;-69
2023/05/26 00:23:00;;;;;;;10.60;5.55;;;12.20;99.90;;;11.13;100.00;98478.34;5002264;28;20073;-70
2023/05/26 00:25:27;;;;;;;10.57;5.90;;;12.20;99.90;;;11.14;100.00;98480.03;5005341;28;20073;-70
2023/05/26 00:27:54;;;;;;;10.40;5.85;;;12.20;99.90;;;11.05;100.00;98483.75;4986885;28;20172;-70
2023/05/26 00:30:21;;;;;;;13.55;6.30;;;12.10;99.90;;;11.06;100.00;98487.19;5007098;28;20497;-70
2023/05/26 00:32:48;;;;;;;11.30;5.93;;;12.10;99.90;;;11.03;100.00;98492.50;5008731;28;20648;-70
2023/05/26 00:35:15;;;;;;;10.13;5.35;;;12.10;99.90;;;10.97;100.00;98495.25;5010789;28;20050;-70
2023/05/26 00:37:42;;;;;;;13.32;6.15;;;12.10;99.90;;;10.92;100.00;98490.22;5008087;28;20779;-70
2023/05/26 00:40:11;;;;;;;14.05;5.53;;;12.00;99.90;;;10.83;100.00;98491.34;5006743;28;20061;-70
2023/05/26 00:42:38;;;;;;;11.77;6.55;;;12.00;99.90;;;10.72;100.00;98496.00;4984364;28;20156;-70
2023/05/26 00:45:06;;;;;;;15.43;5.93;;;11.90;99.90;;;10.65;100.00;98492.72;5005441;28;20422;-70
2023/05/26 00:47:33;;;;;;;11.48;6.05;;;11.90;99.90;;;10.60;100.00;98496.31;5018405;28;20095;-70
2023/05/26 00:50:00;;;;;;;9.60;5.90;;;11.80;99.90;;;10.52;100.00;98499.16;5007283;28;20542;-70
2023/05/26 00:52:29;;;;;;;10.88;6.03;;;11.70;99.90;;;10.38;100.00;98496.94;5012299;28;20074;-70
2023/05/26 00:54:56;;;;;;;10.95;6.18;;;11.70;99.90;;;10.37;100.00;98499.56;4982132;28;20050;-70
2023/05/26 00:57:23;;;;;;;11.38;6.20;;;11.50;99.90;;;10.29;100.00;98498.94;4978322;28;20099;-70
2023/05/26 00:59:50;;;;;;;11.57;5.95;;;11.40;99.90;;;10.23;100.00;98500.75;4989573;28;20104;-70
2023/05/26 01:02:20;;;;;;;10.15;6.22;;;11.40;99.90;;;10.18;100.00;98504.38;5007251;28;20065;-70
2023/05/26 01:04:52;;;;;;;10.45;5.88;;;11.30;99.90;;;10.21;100.00;98499.94;5007085;28;20514;-70
2023/05/26 01:07:21;;;;;;;12.82;5.85;;;11.30;99.90;;;10.24;100.00;98499.88;5012054;28;20053;-70
2023/05/26 01:09:49;;;;;;;9.95;5.78;;;11.30;99.90;;;10.31;100.00;98499.72;5014316;28;20185;-70
2023/05/26 01:12:31;;;;;;;11.32;5.90;;;11.30;99.90;;;10.20;100.00;98506.03;5014801;28;20120;-70
2023/05/26 01:15:26;;;;;;;10.55;6.43;;;11.40;99.90;;;10.12;100.00;98504.50;5012878;28;20095;-70
2023/05/26 01:18:16;;;;;;;11.48;6.00;;;11.30;99.90;;;10.02;100.00;98507.34;4992302;28;20134;-70
2023/05/26 01:21:14;;;;;;;11.80;6.32;;;11.20;99.90;;;9.98;100.00;98505.72;4991612;28;20054;-70
2023/05/26 01:24:02;;;;;;;11.48;6.78;;;11.10;99.90;;;9.87;100.00;98510.31;4984579;28;20053;-70
2023/05/26 01:27:00;;;;;;;11.20;6.80;;;11.10;99.90;;;9.82;100.00;98507.00;5012184;28;20128;-69
2023/05/26 01:29:29;;;;;;;12.48;6.68;;;11.00;99.90;;;9.78;100.00;98515.72;5007686;28;20100;-69
2023/05/26 01:32:10;;;;;;;9.50;5.82;;;11.00;99.90;;;9.75;100.00;98513.22;4988966;28;20156;-70
2023/05/26 01:34:37;;;;;;;11.98;6.40;;;11.00;99.90;;;9.75;100.00;98513.22;4999183;28;20049;-69
2023/05/26 01:37:05;;;;;;;14.98;7.05;;;10.90;99.90;;;9.77;100.00;98514.03;5008758;28;20133;-70
2023/05/26 01:39:33;;;;;;;12.70;7.32;;;10.90;99.90;;;9.61;100.00;98511.81;5005110;28;20061;-70
2023/05/26 01:42:21;;;;;;;10.45;7.18;;;10.80;99.90;;;9.55;100.00;98513.69;4993803;28;20058;-70
2023/05/26 01:45:22;;;;;;;12.15;7.00;;;;;;;9.54;100.00;98518.03;5002086;28;20054;-70
2023/05/26 01:47:53;;;;;;;14.13;7.45;;;10.70;99.90;;;9.39;100.00;98528.72;4996212;28;20047;-70
2023/05/26 01:50:33;;;;;;;11.63;6.57;;;10.60;99.90;;;9.32;100.00;98530.59;5003514;28;20057;-69
2023/05/26 01:53:09;;;;;;;11.35;7.40;;;10.60;99.90;;;9.16;100.00;98534.44;5011544;28;20050;-69
2023/05/26 01:55:38;;;;;;;9.82;6.43;;;10.40;99.90;;;9.23;100.00;98536.00;5008855;28;20161;-70
2023/05/26 01:58:06;;;;;;;9.90;6.55;;;10.40;99.90;;;9.24;100.00;98542.03;4992501;28;20070;-70
2023/05/26 02:00:35;;;;;;;11.10;7.57;;;10.40;99.90;;;9.23;100.00;98532.56;4991940;28;20054;-69
2023/05/26 02:03:02;;;;;;;15.50;7.50;;;10.40;99.90;;;9.10;100.00;98531.97;5014285;28;20210;-70
2023/05/26 02:05:30;;;;;;;9.70;7.07;;;10.40;99.90;;;9.04;100.00;98532.97;5014298;28;20045;-69
2023/05/26 02:07:57;;;;;;;13.23;7.55;;;10.30;99.90;;;9.18;100.00;98532.66;5010501;28;20061;-70
2023/05/26 02:10:24;;;;;;;11.40;7.72;;;10.30;99.90;;;9.16;100.00;98530.09;5006491;28;20582;-69
2023/05/26 02:12:51;;;;;;;15.57;8.52;;;10.30;99.90;;;9.27;100.00;98534.19;4989796;28;20045;-70
2023/05/26 02:15:18;;;;;;;10.73;7.25;;;10.30;99.90;;;9.32;100.00;98547.91;5007261;28;20055;-70
2023/05/26 02:17:47;;;;;;;13.35;7.10;;;10.40;99.90;;;9.25;100.00;98542.00;4998949;28;20131;-70
2023/05/26 02:20:16;;;;;;;12.48;7.90;;;10.40;99.90;;;9.27;100.00;98539.38;5009356;28;20069;-70
2023/05/26 02:22:43;;;;;;;15.25;7.80;;;10.40;99.90;;;9.24;100.00;98545.50;5009810;28;20105;-70
2023/05/26 02:25:11;;;;;;;11.70;7.60;;;10.40;99.90;;;9.13;100.00;98542.28;5008380;28;20096;-70
2023/05/26 02:27:38;;;;;;;12.82;8.13;;;10.30;99.90;;;9.17;100.00;98542.19;5009429;28;20101;-69
2023/05/26 02:30:06;;;;;;;13.63;8.07;;;10.30;99.90;;;9.09;100.00;98556.16;5004005;28;20125;-70
2023/05/26 02:32:34;;;;;;;12.40;7.25;;;10.20;99.90;;;8.87;100.00;98551.44;5002087;28;20069;-70
2023/05/26 02:35:06;;;;;;;13.50;8.10;;;10.20;99.90;;;8.99;100.00;98555.50;5007607;28;20046;-70
2023/05/26 02:37:33;;;;;;;9.90;6.88;;;10.10;99.90;;;8.90;100.00;98555.69;5002738;28;20053;-70
2023/05/26 02:40:00;;;;;;;15.52;7.88;;;10.10;99.90;;;8.90;100.00;98553.13;5009415;28;20597;-70
2023/05/26 02:42:27;;;;;;;11.00;7.93;;;10.00;99.90;;;8.81;100.00;98556.72;5005832;28;20045;-70
2023/05/26 02:44:54;;;;;;;14.32;8.48;;;10.00;99.90;;;8.58;100.00;98546.81;4994270;28;20061;-70
2023/05/26 02:47:21;;;;;;;12.48;7.47;;;9.90;99.90;;;8.51;100.00;98543.50;5010613;28;20081;-70
2023/05/26 02:49:48;;;;;;;11.30;7.45;;;9.90;99.90;;;8.47;100.00;98548.75;5008718;28;20141;-70
2023/05/26 02:52:15;;;;;;;11.55;7.57;;;9.70;99.90;;;8.53;100.00;98556.38;4986568;28;20474;-70
2023/05/26 02:54:42;;;;;;;14.98;8.40;;;9.70;99.90;;;8.46;100.00;98549.63;5002454;28;20039;-70
2023/05/26 02:57:09;;;;;;;14.30;8.65;;;9.60;99.90;;;8.32;100.00;98549.84;5010364;28;20534;-70
2023/05/26 02:59:53;;;;;;;13.60;8.30;;;9.60;99.90;;;8.30;100.00;98552.47;5011641;28;20414;-70
2023/05/26 03:02:20;;;;;;;10.27;8.23;;;9.50;99.90;;;8.21;100.00;98554.34;5005581;28;20050;-69
2023/05/26 03:04:47;;;;;;;11.95;7.82;;;9.40;99.90;;;8.26;100.00;98561.16;5009035;28;20062;-69
2023/05/26 03:07:15;;;;;;;13.02;8.32;;;9.40;99.90;;;8.21;100.00;98563.00;5007861;28;20096;-70
2023/05/26 03:09:42;;;;;;;13.68;7.93;;;9.40;99.90;;;8.20;100.00;98565.59;5007537;28;20049;-69
2023/05/26 03:12:12;;;;;;;15.02;8.73;;;9.40;99.90;;;8.25;100.00;98564.63;4991482;28;20117;-70
2023/05/26 03:14:39;;;;;;;16.15;8.98;;;9.40;99.90;;;8.18;100.00;98552.69;5001938;28;20050;-70
2023/05/26 03:17:06;;;;;;;11.18;8.02;;;9.40;99.90;;;8.16;100.00;98554.44;4991288;28;20433;-69
2023/05/26 03:19:33;;;;;;;12.10;7.97;;;9.30;99.90;;;8.11;100.00;98558.84;5003162;28;20536;-70
2023/05/26 03:22:01;;;;;;;11.90;8.30;;;9.30;99.90;;;8.14;100.00;98554.47;5015232;28;20132;-69
2023/05/26 03:24:50;;;;;;;14.43;8.27;;;9.30;99.90;;;8.11;100.00;98549.34;4997404;28;20524;-69
2023/05/26 03:27:18;;;;;;;11.95;8.35;;;9.30;99.90;;;8.00;100.00;98551.25;5016230;28;20069;-69
2023/05/26 03:29:46;;;;;;;11.90;8.05;;;9.30;99.90;;;7.95;100.00;98553.91;5002135;28;20466;-69
2023/05/26 03:32:13;;;;;;;12.10;8.13;;;9.30;99.90;;;7.98;100.00;98560.75;4988959;28;20052;-69
2023/05/26 03:34:40;;;;;;;14.48;8.30;;;9.20;99.90;;;8.01;100.00;98557.31;5003253;28;20108;-69
2023/05/26 03:37:07;;;;;;;14.43;8.20;;;9.30;99.90;;;7.97;100.00;98559.91;5011320;28;20120;-69
2023/05/26 03:39:34;;;;;;;13.88;8.27;;;9.20;99.90;;;8.02;100.00;98559.00;5009709;28;20128;-69
2023/05/26 03:42:01;;;;;;;14.27;8.13;;;9.20;99.90;;;7.96;100.00;98563.41;5006754;28;20407;-69
2023/05/26 03:44:28;;;;;;;16.45;8.68;;;9.30;99.90;;;7.98;100.00;98558.19;4995320;28;20054;-69
2023/05/26 03:46:55;;;;;;;15.18;8.23;;;9.20;99.90;;;7.91;100.00;98554.88;4995096;28;20058;-69
2023/05/26 03:49:22;;;;;;;11.38;8.48;;;9.20;99.90;;;7.93;100.00;98563.44;4995005;28;20050;-69
2023/05/26 03:51:50;;;;;;;12.43;8.20;;;9.20;99.90;;;7.92;100.00;98564.31;4999784;28;20046;-69
2023/05/26 03:54:17;;;;;;;13.65;7.75;;;9.20;99.90;;;7.90;100.00;98566.06;5003887;28;20050;-69
2023/05/26 03:56:44;;;;;;;15.55;9.95;;;9.10;99.90;;;7.95;100.00;98571.16;5006373;28;20137;-69
2023/05/26 03:59:11;;;;;;;18.27;9.27;;;9.10;99.90;;;8.05;100.00;98587.38;5010017;28;20053;-70
2023/05/26 04:01:38;;;;;;;13.63;7.90;;;9.10;99.90;;;8.04;100.00;98577.94;5005948;28;20045;-70
2023/05/26 04:04:05;;;;;;;11.75;8.32;;;9.20;99.90;;;8.08;100.00;98585.59;5011866;28;20529;-71
2023/05/26 04:06:32;;;;;;;13.65;7.93;;;9.20;99.90;;;8.06;100.00;98584.78;5008854;28;20056;-70
2023/05/26 04:09:00;;;;;;;15.00;9.38;;;9.20;99.90;;;8.14;100.00;98594.97;4998861;28;20533;-71
2023/05/26 04:11:27;;;;;;;14.13;9.90;;;9.20;99.90;;;8.23;100.00;98600.00;5009460;28;20408;-71
2023/05/26 04:13:54;;;;;;;14.43;9.07;;;9.20;99.90;;;8.25;100.00;98598.25;4978190;28;20140;-70
2023/05/26 04:16:21;;;;;;;13.82;8.90;;;9.20;99.90;;;8.30;100.00;98603.34;5010885;28;20056;-71
2023/05/26 04:18:49;;;;;;;15.52;9.77;;;9.30;99.90;;;8.41;100.00;98591.09;5003542;28;20446;-70
2023/05/26 04:21:16;;;;;;;19.30;10.27;;;9.30;99.90;;;8.44;100.00;98588.50;5004287;28;20132;-70
2023/05/26 04:23:51;;;;;;;14.63;9.60;;;9.30;99.90;;;8.48;100.00;98594.44;4987720;28;20077;-70
2023/05/26 04:26:19;;;;;;;14.80;9.38;;;9.40;99.90;;;8.48;100.00;98590.13;5005899;28;20105;-70
2023/05/26 04:28:46;;;;;;;17.00;9.35;;;9.50;99.90;;;8.61;100.00;98595.94;4988198;28;20100;-70
2023/05/26 04:31:16;;;;;;;15.38;8.50;;;9.50;99.90;;;8.70;100.00;98595.75;5000897;28;20792;-70
2023/05/26 04:33:45;;;;;;;17.70;9.38;;;9.60;99.90;;;8.79;100.00;98580.06;5004872;28;20073;-70
2023/05/26 04:36:16;;;;;;;14.25;8.85;;;9.70;99.90;;;8.91;100.00;98584.13;5006144;28;20450;-70
2023/05/26 04:38:47;;;;;;;12.48;8.25;;;9.80;99.90;;;8.86;100.00;98592.88;5012702;28;20119;-70
2023/05/26 04:41:15;;;;;;;14.20;8.07;;;9.80;99.90;;;8.96;100.00;98579.75;5004239;28;20515;-70
2023/05/26 04:43:43;;;;;;;16.02;8.77;;;9.90;99.90;;;9.08;100.00;98586.41;4983255;28;20117;-70
2023/05/26 04:46:11;;;;;;;16.80;9.40;;;9.90;99.90;;;9.14;100.00;98575.03;5009874;28;20054;-70
2023/05/26 04:48:38;;;;;;;14.57;8.82;;;10.10;99.90;;;9.21;100.00;98577.50;4993931;28;20562;-70
2023/05/26 04:51:07;;;;;;;14.90;9.48;;;10.20;99.90;;;9.29;100.00;98571.28;5002108;28;20604;-70
2023/05/26 04:53:35;;;;;;;17.88;8.40;;;10.20;99.90;;;9.38;100.00;98565.91;5008050;28;20046;-69
2023/05/26 04:56:02;;;;;;;13.98;8.77;;;10.20;99.90;;;9.38;100.00;98564.16;5003607;28;20145;-70
2023/05/26 04:58:36;;;;;;;16.65;8.52;;;10.30;99.90;;;9.51;100.00;98561.28;4999236;28;20503;-70
2023/05/26 05:01:03;;;;;;;17.65;8.95;;;10.30;99.90;;;9.55;100.00;98563.78;4985354;28;20921;-70
2023/05/26 05:03:34;;;;;;;18.38;9.18;;;10.40;99.90;;;9.65;100.00;98556.66;5008434;28;20042;-70
2023/05/26 05:06:04;;;;;;;15.35;8.23;;;10.50;99.90;;;9.73;100.00;98554.72;5005105;28;20098;-70
2023/05/26 05:08:31;;;;;;;13.05;7.80;;;10.60;99.90;;;9.87;100.00;98551.81;5004313;28;20065;-70
2023/05/26 05:10:58;;;;;;;14.25;8.32;;;10.70;99.90;;;9.94;100.00;98550.75;5003392;28;20157;-70
2023/05/26 05:13:25;;;;;;;13.63;7.38;;;10.70;99.90;;;10.08;100.00;98544.38;5006624;28;20812;-70
2023/05/26 05:15:53;;;;;;;15.10;7.75;;;10.80;99.90;;;10.11;100.00;98537.38;4992483;28;20050;-70
2023/05/26 05:18:20;;;;;;;15.57;8.20;;;10.90;99.90;;;10.26;100.00;98534.41;4984767;28;20045;-70
2023/05/26 05:20:47;;;;;;;15.77;8.23;;;11.00;99.90;;;10.34;100.00;98529.03;4995317;28;20047;-70
2023/05/26 05:23:14;;;;;;;12.95;7.10;;;11.10;99.90;;;10.54;100.00;98528.53;4988952;28;20077;-70
2023/05/26 05:25:42;;;;;;;12.80;7.70;;;11.20;99.90;;;10.68;100.00;98526.38;4975796;28;20110;-70
2023/05/26 05:28:12;;;;;;;22.45;8.23;;;11.40;99.90;;;10.93;100.00;98525.69;4983834;28;20061;-70
2023/05/26 05:30:39;;;;;;;14.40;8.02;;;11.50;99.90;;;11.11;100.00;98516.50;4986128;28;20090;-70
2023/05/26 05:33:07;;;;;;;12.98;7.40;;;11.60;99.90;;;11.05;100.00;98514.09;4992081;28;20065;-70
2023/05/26 05:35:35;;;;;;;14.00;7.40;;;11.70;99.90;;;11.32;100.00;98507.22;4991137;28;20161;-70
2023/05/26 05:38:03;;;;;;;12.82;7.35;;;11.90;99.90;;;11.42;100.00;98506.03;4978974;28;20050;-70
2023/05/26 05:40:31;;;;;;;14.27;6.68;;;12.00;99.90;;;11.41;100.00;98493.09;4985133;28;20054;-70
2023/05/26 05:42:58;;;;;;;11.90;6.40;;;12.10;99.90;;;11.47;100.00;98498.94;4973979;28;20066;-70
2023/05/26 05:45:25;;;;;;;14.15;7.85;;;12.20;99.90;;;11.56;100.00;98494.34;4988631;28;20050;-70
2023/05/26 05:47:52;;;;;;;10.88;6.90;;;12.30;99.90;;;11.60;100.00;98489.00;4991139;28;20051;-71
2023/05/26 05:50:19;;;;;;;12.90;6.93;;;12.30;99.90;;;11.53;100.00;98477.09;4994759;28;20589;-71
2023/05/26 05:52:46;;;;;;;15.20;7.50;;;12.30;99.90;;;11.64;100.00;98475.00;4995574;28;20128;-70
2023/05/26 05:55:13;;;;;;;14.32;8.05;;;12.50;99.90;;;11.73;100.00;98482.50;4993230;28;20112;-70
2023/05/26 05:57:40;;;;;;;13.07;7.60;;;12.50;99.90;;;11.82;100.00;98476.16;4995665;28;20050;-70
2023/05/26 06:00:09;;;;;;;13.07;7.28;;;12.50;99.90;;;11.79;100.00;98481.47;4978254;28;20060;-71
2023/05/26 06:02:37;;;;;;;16.65;8.10;;;12.50;99.90;;;11.62;100.00;98473.34;4973890;28;20053;-70
2023/05/26 06:05:05;;;;;;;14.93;7.75;;;12.40;99.90;;;11.66;100.00;98486.19;4993888;28;20051;-70
2023/05/26 06:07:35;;;;;;;15.38;8.23;;;12.50;99.90;;;11.91;100.00;98482.84;4994361;28;20511;-70
2023/05/26 06:10:03;;;;;;;11.65;7.63;;;12.60;99.90;;;11.87;100.00;98478.59;4970549;28;20141;-71
2023/05/26 06:12:30;;;;;;;12.63;7.18;;;12.80;99.90;;;12.23;100.00;98476.53;4965636;28;20046;-71
2023/05/26 06:14:57;;;;;;;13.70;7.88;;;12.80;99.90;;;12.05;100.00;98466.75;4990029;28;20087;-71
2023/05/26 06:17:24;;;;;;;11.98;6.55;;;13.00;99.90;;;12.26;100.00;98475.56;4992456;28;20047;-70
2023/05/26 06:19:51;;;;;;;12.85;7.10;;;13.00;99.90;;;12.44;100.00;98481.88;4992238;28;20141;-71
2023/05/26 06:22:18;;;;;;;14.45;7.20;;;13.10;99.90;;;12.54;100.00;98476.28;4970739;28;20070;-71
2023/05/26 06:24:46;;;;;;;15.10;6.95;;;13.20;99.90;;;12.72;100.00;98474.75;4974103;28;20196;-70
2023/05/26 06:27:13;;;;;;;10.85;6.15;;;13.30;99.90;;;12.72;100.00;98469.53;4994457;28;20062;-71
2023/05/26 06:29:42;;;;;;;13.00;7.20;;;13.40;99.90;;;12.68;100.00;98475.78;4996048;28;20050;-71
2023/05/26 06:32:09;;;;;;;14.63;6.95;;;13.50;99.90;;;12.90;100.00;98474.97;4988965;28;20097;-71
2023/05/26 06:34:36;;;;;;;14.73;7.22;;;13.60;99.90;;;13.07;100.00;98474.31;4981956;28;20630;-70
2023/05/26 06:37:03;;;;;;;10.65;6.38;;;13.80;99.90;;;13.00;100.00;98467.66;4967794;28;20043;-70
2023/05/26 06:39:30;;;;;;;12.55;6.93;;;13.80;99.90;;;13.07;100.00;98462.16;4963185;28;20053;-70
2023/05/26 06:41:57;;;;;;;15.25;5.78;;;13.90;99.90;;;13.18;100.00;98462.59;4992403;28;21111;-70
2023/05/26 06:44:26;;;;;;;17.50;7.07;;;13.80;99.90;;;13.01;100.00;98464.16;4988884;28;20507;-71
2023/05/26 06:46:53;;;;;;;12.73;6.40;;;14.00;99.90;;;13.17;100.00;98457.44;4992620;28;20074;-71
2023/05/26 06:49:23;;;;;;;14.98;6.90;;;14.00;99.90;;;13.45;100.00;98451.16;4994721;28;20061;-71
2023/05/26 06:51:50;;;;;;;12.10;6.65;;;14.10;99.90;;;13.75;100.00;98457.75;4997311;28;20073;-71
2023/05/26 06:54:17;;;;;;;12.57;6.22;;;14.30;99.90;;;13.75;100.00;98451.66;4990668;28;20220;-71
2023/05/26 06:56:44;;;;;;;14.25;6.45;;;14.40;99.90;;;14.01;100.00;98455.81;4988098;28;20058;-70
2023/05/26 06:59:12;;;;;;;15.32;5.72;;;14.60;99.90;;;14.11;100.00;98454.47;4967062;28;20512;-71
2023/05/26 07:01:39;;;;;;;12.82;5.97;;;14.70;99.90;;;14.13;100.00;98443.97;4988085;28;20589;-71
2023/05/26 07:04:06;;;;;;;11.80;6.20;;;14.90;99.90;;;14.32;100.00;98449.25;4980801;28;20084;-71
2023/05/26 07:06:33;;;;;;;13.98;6.63;;;15.00;99.90;;;14.24;100.00;98452.19;4973368;28;20135;-70
2023/05/26 07:09:14;;;;;;;17.30;6.28;;;14.90;99.90;;;14.27;100.00;98452.06;4989831;28;20058;-71
2023/05/26 07:11:41;;;;;;;12.48;6.20;;;15.10;99.90;;;14.46;100.00;98446.00;4984833;28;20511;-71
2023/05/26 07:14:08;;;;;;;12.95;6.53;;;15.20;99.90;;;14.64;100.00;98447.84;4971415;28;20055;-71
2023/05/26 07:16:35;;;;;;;12.27;6.32;;;15.30;99.90;;;14.70;100.00;98444.97;5002443;28;20105;-71
2023/05/26 07:19:02;;;;;;;13.93;6.82;;;15.40;99.90;;;14.68;100.00;98445.94;5003033;28;20442;-71
2023/05/26 07:21:31;;;;;;;11.57;6.60;;;15.40;99.90;;;15.01;100.00;98454.00;5003049;28;20132;-72
2023/05/26 07:23:58;;;;;;;10.10;5.78;;;15.60;99.90;;;14.93;100.00;98451.75;5002790;28;20149;-71
2023/05/26 07:26:25;;;;;;;13.63;6.40;;;15.60;99.90;;;14.75;100.00;98445.59;5011024;28;20069;-71
2023/05/26 07:28:53;;;;;;;12.43;6.05;;;15.60;99.90;;;14.82;100.00;98446.16;5012086;28;20050;-71
2023/05/26 07:31:23;;;;;;;14.77;6.45;;;15.70;99.90;;;14.98;100.00;98444.53;5005823;28;20085;-71
2023/05/26 07:33:50;;;;;;;13.52;7.22;;;15.80;99.90;;;15.21;100.00;98448.69;5005692;28;20133;-71
2023/05/26 07:36:17;;;;;;;15.77;6.30;;;16.00;99.90;;;15.06;100.00;98452.88;5002586;28;20073;-71
2023/05/26 07:38:44;;;;;;;11.40;5.75;;;15.90;99.90;;;15.19;100.00;98444.44;5008801;28;20139;-71
2023/05/26 07:41:12;;;;;;;14.95;6.15;;;15.90;99.90;;;15.33;100.00;98436.78;5008911;28;20097;-71
2023/05/26 07:43:39;;;;;;;11.93;5.68;;;16.00;99.90;;;15.45;100.00;98445.81;4986576;28;20078;-71
2023/05/26 07:46:06;;;;;;;14.43;5.70;;;16.20;99.90;;;15.52;100.00;98441.13;5006934;28;20062;-71
2023/05/26 07:48:33;;;;;;;12.98;5.72;;;16.30;99.90;;;15.59;100.00;98438.13;4998028;28;20042;-71
2023/05/26 07:51:00;;;;;;;14.63;5.95;;;16.40;99.90;;;15.93;100.00;98439.09;5016867;28;20058;-71
2023/05/26 07:53:27;;;;;;;13.30;5.88;;;16.50;99.90;;;15.99;100.00;98440.59;4992919;28;20060;-72
2023/05/26 07:55:54;;;;;;;14.70;6.13;;;16.70;99.90;;;16.10;100.00;98440.84;5010149;28;20046;-71
2023/05/26 07:58:21;;;;;;;13.15;6.18;;;16.80;99.90;;;15.77;100.00;98446.03;5007461;28;20050;-72
2023/05/26 08:00:48;;;;;;;11.63;5.65;;;16.70;99.90;;;15.86;100.00;98440.34;4991395;28;20116;-71
2023/05/26 08:03:15;;;;;;;12.52;5.90;;;16.80;99.90;;;15.86;100.00;98449.03;5001870;28;20576;-71
2023/05/26 08:05:45;;;;;;;12.60;5.93;;;16.80;99.90;;;16.23;100.00;98444.53;5009516;28;20072;-71
2023/05/26 08:08:12;;;;;;;10.60;6.18;;;16.80;99.90;;;16.21;100.00;98440.31;5012666;28;20060;-71
2023/05/26 08:10:39;;;;;;;12.73;6.10;;;17.00;99.90;;;15.92;100.00;98447.91;5014937;28;20143;-71
2023/05/26 08:13:07;;;;;;;13.48;6.20;;;17.00;99.90;;;16.19;100.00;98439.53;5012147;28;20050;-71
2023/05/26 08:15:34;;;;;;;12.98;6.15;;;17.10;99.90;;;16.06;100.00;98434.09;4999796;28;20108;-71
2023/05/26 08:18:01;;;;;;;13.57;6.95;;;17.10;99.90;;;16.07;100.00;98443.63;5015096;28;20168;-71
2023/05/26 08:20:28;;;;;;;11.32;5.82;;;17.00;99.90;;;16.35;100.00;98442.22;5011636;28;20053;-72
2023/05/26 08:22:59;;;;;;;19.40;6.50;;;17.10;99.90;;;16.17;100.00;98444.88;5003184;28;20088;-71
2023/05/26 08:25:27;;;;;;;16.67;6.38;;;17.10;99.90;;;16.59;100.00;98438.31;5003057;28;20049;-71
2023/05/26 08:27:54;;;;;;;12.63;6.50;;;17.30;99.90;;;16.81;100.00;98437.16;5013158;28;20447;-71
2023/05/26 08:30:22;;;;;;;14.02;5.63;;;17.60;99.90;;;17.30;100.00;98426.59;4994579;28;20061;-71
2023/05/26 08:32:49;;;;;;;17.42;5.90;;;17.60;99.90;;;17.32;100.00;98427.34;5008653;28;20045;-72
2023/05/26 08:35:17;;;;;;;15.70;6.07;;;17.70;99.90;;;17.90;100.00;98431.06;4987803;28;20063;-72
2023/05/26 08:37:44;;;;;;;11.73;4.95;;;17.80;99.90;;;18.26;100.00;98421.91;5011384;28;20761;-72
2023/05/26 08:40:11;;;;;;;8.35;5.03;;;18.20;99.90;;;18.28;100.00;98428.78;5007300;28;20105;-70
2023/05/26 08:42:47;;;;;;;11.65;4.85;;;18.40;99.90;;;18.29;100.00;98430.47;5010803;28;20049;-72
2023/05/26 08:45:14;;;;;;;13.85;5.50;;;18.50;99.90;;;18.24;100.00;98436.94;4999888;28;20100;-72
2023/05/26 08:47:42;;;;;;;13.57;5.53;;;18.50;99.90;;;18.72;100.00;98429.59;5003920;28;20625;-70
2023/05/26 08:50:11;;;;;;;11.82;5.70;;;18.70;99.90;;;18.72;100.00;98430.44;5010346;28;20145;-70
2023/05/26 08:52:39;;;;;;;9.98;4.97;;;19.30;99.90;;;18.80;100.00;98428.22;5006322;28;20047;-72
2023/05/26 08:55:23;;;;;;;9.27;4.50;;;19.40;99.90;;;18.70;100.00;98427.09;4994514;28;20554;-70
2023/05/26 08:57:52;;;;;;;12.80;5.10;;;20.00;99.90;;;19.02;100.00;98419.84;4991039;28;20052;-70
2023/05/26 09:00:20;;;;;;;9.90;5.18;;;20.40;99.90;;;18.91;100.00;98427.56;5011123;28;20160;-70
2023/05/26 09:02:50;;;;;;;10.38;5.13;;;20.70;99.90;;;19.10;100.00;98418.50;4985156;28;20422;-70
2023/05/26 09:05:18;;;;;;;12.10;4.78;;;20.80;99.90;;;19.76;100.00;98411.59;4986201;28;20133;-70
2023/05/26 09:07:45;;;;;;;11.50;4.80;;;21.10;99.90;;;19.18;100.00;98427.59;4999858;28;20112;-71
2023/05/26 09:10:31;;;;;;;11.60;4.07;;;21.60;99.90;;;19.77;100.00;98432.53;4996779;28;20533;-73
2023/05/26 09:13:08;;;;;;;9.85;4.68;;;21.90;99.90;;;20.55;100.00;98422.88;4978860;28;20049;-71
2023/05/26 09:15:36;;;;;;;8.82;4.60;;;22.10;99.90;;;20.13;100.00;98427.53;4999592;28;20585;-71
2023/05/26 09:18:12;;;;;;;13.70;5.47;;;22.20;99.90;;;20.21;100.00;98425.25;5003088;28;20050;-72
2023/05/26 09:20:46;;;;;;;13.10;4.85;;;22.50;99.90;;;20.80;100.00;98425.53;4970254;28;20046;-72
2023/05/26 09:23:16;;;;;;;13.63;5.55;;;22.80;99.90;;;20.56;100.00;98436.00;4993001;28;20560;-71
2023/05/26 09:25:46;;;;;;;11.25;5.03;;;22.80;99.90;;;20.23;100.00;98436.50;5001747;28;20509;-71
2023/05/26 09:28:14;;;;;;;11.23;5.43;;;22.80;99.90;;;20.82;100.00;98428.03;4991596;28;20057;-71
2023/05/26 09:30:46;;;;;;;8.65;4.35;;;23.00;99.90;;;20.84;100.00;98429.63;4986914;28;20121;-72
2023/05/26 09:33:17;;;;;;;9.93;4.47;;;23.20;99.90;;;20.93;100.00;98436.03;5010369;28;20049;-71
2023/05/26 09:35:48;;;;;;;15.07;4.75;;;23.30;99.90;;;21.23;100.00;98425.09;5005160;28;20617;-72
2023/05/26 09:38:18;;;;;;;10.25;4.72;;;23.50;99.90;;;20.58;100.00;98438.53;5005100;28;20519;-72
2023/05/26 09:40:48;;;;;;;8.27;4.50;;;23.10;99.90;;;21.00;100.00;98426.72;4985789;28;20058;-72
2023/05/26 09:43:19;;;;;;;12.20;4.40;;;23.20;99.90;;;21.33;100.00;98427.91;4988956;28;20054;-72
2023/05/26 09:45:47;;;;;;;12.80;4.38;;;23.00;99.90;;;22.16;100.00;98428.81;4998997;28;20133;-71
2023/05/26 09:48:15;;;;;;;11.80;4.35;;;23.30;99.90;;;21.15;100.00;98432.72;4999342;28;20069;-72
2023/05/26 09:50:42;;;;;;;11.65;5.03;;;23.40;99.90;;;20.87;100.00;98431.22;5007934;28;20046;-72
2023/05/26 09:53:10;;;;;;;14.20;4.38;;;22.80;99.90;;;21.39;100.00;98418.66;5003360;28;20077;-71
2023/05/26 09:55:39;;;;;;;10.60;4.50;;;23.10;99.90;;;22.25;100.00;98423.69;4992262;28;20058;-71
2023/05/26 09:58:09;;;;;;;9.63;4.60;;;23.20;99.90;;;21.14;100.00;98420.44;5014663;28;20111;-70
2023/05/26 10:00:40;;;;;;;11.57;4.85;;;23.40;99.60;;;21.94;100.00;98425.19;4992213;28;20042;-71
2023/05/26 10:03:10;;;;;;;8.82;4.22;;;23.30;99.90;;;21.71;100.00;98421.59;5007190;28;20104;-70
2023/05/26 10:05:45;;;;;;;14.27;5.15;;;23.40;99.80;;;22.21;100.00;98422.22;4992170;28;20537;-71
2023/05/26 10:08:17;;;;;;;12.35;5.15;;;23.40;99.50;;;21.04;100.00;98428.19;5005979;28;20132;-71
2023/05/26 10:10:47;;;;;;;12.18;5.25;;;23.10;99.30;;;21.86;100.00;98427.53;5008188;28;20511;-71
2023/05/26 10:13:16;;;;;;;16.23;5.18;;;22.90;99.10;;;21.72;100.00;98421.50;4985273;28;20074;-71
2023/05/26 10:15:45;;;;;;;14.23;4.03;;;23.10;98.90;;;22.03;100.00;98423.63;5008436;28;20100;-71
2023/05/26 10:18:13;;;;;;;12.63;5.03;;;23.30;97.70;;;21.61;100.00;98421.44;5006645;28;20050;-71